Time;durP1;ratioP1;P1;durP2;ratioP2;P2;SDS_P1;SDS_P2;PMS_P1;PMS_P2;Temp;Humidity;BMP_temperature;BMP_pressure;BME280_temperature;BME280_humidity;BME280_pressure;Samples;Min_cycle;Max_cycle;Signal;HPM_P1;HPM_P2
2022/04/23 00:01:42;;;;;;;10.30;9.25;;;11.30;95.80;;;;;;4939865;29;20023;-49
2022/04/23 00:04:09;;;;;;;9.80;8.80;;;11.20;95.90;;;;;;4939332;29;20035;-49
2022/04/23 00:06:35;;;;;;;9.52;8.32;;;11.20;96.20;;;;;;4937419;29;20028;-49
2022/04/23 00:09:00;;;;;;;14.13;9.45;;;11.20;96.20;;;;;;4935846;29;20047;-47
2022/04/23 00:11:26;;;;;;;11.18;10.00;;;11.10;96.30;;;;;;4935984;29;20027;-50
2022/04/23 00:13:52;;;;;;;16.60;10.05;;;11.10;96.40;;;;;;4935913;29;20035;-50
2022/04/23 00:16:17;;;;;;;11.93;9.55;;;11.10;96.60;;;;;;4935521;29;20032;-50
2022/04/23 00:18:43;;;;;;;21.90;9.43;;;11.10;96.70;;;;;;4935211;29;20520;-50
2022/04/23 00:21:09;;;;;;;13.95;9.88;;;11.00;96.80;;;;;;4936027;29;20020;-49
2022/04/23 00:23:34;;;;;;;12.35;9.65;;;11.00;96.90;;;;;;4935664;29;20032;-51
2022/04/23 00:26:00;;;;;;;11.45;9.82;;;10.90;97.00;;;;;;4935219;29;20024;-50
2022/04/23 00:28:26;;;;;;;14.50;9.45;;;10.90;97.10;;;;;;4935050;29;20039;-49
2022/04/23 00:33:19;;;;;;;14.02;9.82;;;10.90;97.20;;;;;;4999911;23;20094;-53
2022/04/23 00:35:45;;;;;;;12.23;9.60;;;10.90;97.40;;;;;;4974313;28;20118;-51
2022/04/23 00:38:11;;;;;;;18.10;10.27;;;10.90;97.40;;;;;;4972274;28;20027;-47
2022/04/23 00:40:39;;;;;;;17.02;11.70;;;10.90;97.30;;;;;;4973859;28;20030;-47
2022/04/23 00:43:10;;;;;;;12.95;9.63;;;10.90;97.40;;;;;;4973696;28;20031;-46
2022/04/23 00:45:36;;;;;;;17.85;10.93;;;10.90;97.60;;;;;;4973875;28;20033;-46
2022/04/23 00:48:02;;;;;;;15.05;10.55;;;10.80;97.70;;;;;;4987954;28;20022;-44
2022/04/23 00:50:28;;;;;;;11.27;10.07;;;10.80;97.80;;;;;;4973606;28;20081;-45
2022/04/23 00:52:58;;;;;;;17.33;11.60;;;10.70;97.90;;;;;;4973404;28;20075;-43
2022/04/23 00:55:25;;;;;;;11.80;10.55;;;10.70;98.10;;;;;;4973197;28;20487;-44
2022/04/23 00:57:51;;;;;;;15.45;11.25;;;10.70;98.20;;;;;;4972962;28;20023;-41
2022/04/23 01:00:18;;;;;;;14.10;10.70;;;10.70;98.30;;;;;;4973355;28;20038;-48
2022/04/23 01:02:44;;;;;;;12.88;10.55;;;10.60;98.30;;;;;;4973112;28;20121;-50
2022/04/23 01:05:10;;;;;;;12.85;11.35;;;10.60;98.40;;;;;;4973267;28;20026;-45
2022/04/23 01:07:42;;;;;;;11.80;10.57;;;10.60;98.50;;;;;;4973015;28;20095;-47
2022/04/23 01:10:09;;;;;;;16.42;12.40;;;10.60;98.60;;;;;;4973184;28;20143;-50
2022/04/23 01:12:35;;;;;;;14.68;11.48;;;10.60;98.60;;;;;;4972982;28;20102;-48
2022/04/23 01:15:04;;;;;;;18.75;12.68;;;10.60;98.80;;;;;;4973128;28;20026;-50
2022/04/23 01:17:29;;;;;;;12.55;10.88;;;10.50;98.80;;;;;;4972833;28;20106;-45
2022/04/23 01:19:55;;;;;;;14.57;12.05;;;10.50;99.00;;;;;;4973193;28;20570;-45
2022/04/23 01:22:24;;;;;;;14.65;12.05;;;10.50;99.10;;;;;;4973456;28;20026;-49
2022/04/23 01:24:51;;;;;;;15.95;12.80;;;10.50;99.10;;;;;;4973915;28;20054;-46
2022/04/23 01:27:17;;;;;;;13.32;10.93;;;10.40;99.30;;;;;;4988742;28;20070;-47
2022/04/23 01:29:43;;;;;;;13.60;12.18;;;10.40;99.40;;;;;;4972862;28;20031;-49
2022/04/23 01:32:08;;;;;;;13.50;11.63;;;10.30;99.50;;;;;;4971548;28;20034;-45
2022/04/23 01:34:34;;;;;;;14.90;12.43;;;10.30;99.70;;;;;;4972948;28;20031;-43
2022/04/23 01:36:59;;;;;;;14.70;12.88;;;10.30;99.70;;;;;;4972546;28;20023;-47
2022/04/23 01:39:25;;;;;;;18.10;12.65;;;10.30;99.90;;;;;;4971487;28;20082;-44
2022/04/23 01:41:50;;;;;;;14.27;12.70;;;10.30;99.90;;;;;;4972805;28;20034;-46
2022/04/23 01:44:16;;;;;;;21.13;13.52;;;10.30;99.90;;;;;;4972718;28;20114;-47
2022/04/23 01:46:42;;;;;;;15.55;12.57;;;10.30;99.90;;;;;;4987661;28;20026;-53
2022/04/23 01:49:07;;;;;;;21.08;13.68;;;10.20;99.90;;;;;;4972554;28;20035;-46
2022/04/23 01:51:33;;;;;;;17.70;13.25;;;10.20;99.90;;;;;;4971326;28;20062;-46
2022/04/23 01:53:58;;;;;;;13.55;11.98;;;10.20;99.90;;;;;;4971487;28;20038;-43
2022/04/23 01:56:24;;;;;;;18.25;13.43;;;10.20;99.90;;;;;;4972756;28;20510;-47
2022/04/23 01:58:50;;;;;;;16.52;12.98;;;10.20;99.90;;;;;;4972239;28;20039;-47
2022/04/23 02:01:17;;;;;;;18.77;13.43;;;10.20;99.90;;;;;;4972629;28;20090;-45
2022/04/23 02:03:43;;;;;;;17.58;13.35;;;10.20;99.90;;;;;;4972733;28;20019;-51
2022/04/23 02:06:08;;;;;;;15.95;12.98;;;10.20;99.90;;;;;;4972753;28;20030;-43
2022/04/23 02:08:34;;;;;;;14.57;13.02;;;10.20;99.90;;;;;;4972369;28;20110;-43
2022/04/23 02:10:59;;;;;;;16.98;13.23;;;10.20;99.90;;;;;;4972603;28;20053;-51
2022/04/23 02:13:26;;;;;;;18.60;13.07;;;10.20;99.90;;;;;;4972689;28;20075;-50
2022/04/23 02:15:52;;;;;;;17.73;12.88;;;10.20;99.90;;;;;;4975032;28;20049;-45
2022/04/23 02:18:18;;;;;;;22.67;13.20;;;10.20;99.90;;;;;;4976218;28;20041;-47
2022/04/23 02:20:43;;;;;;;16.45;14.57;;;10.20;99.90;;;;;;4976649;28;20023;-47
2022/04/23 02:23:09;;;;;;;18.15;13.45;;;10.10;99.90;;;;;;4976608;28;20030;-46
2022/04/23 02:25:36;;;;;;;16.35;14.57;;;10.10;99.90;;;;;;4976972;28;20467;-47
2022/04/23 02:28:03;;;;;;;16.10;14.02;;;10.10;99.90;;;;;;4975669;28;20551;-44
2022/04/23 02:30:29;;;;;;;15.38;12.73;;;10.10;99.90;;;;;;4974696;28;20019;-45
2022/04/23 02:32:55;;;;;;;16.00;13.10;;;10.10;99.90;;;;;;4974736;28;20093;-45
2022/04/23 02:35:21;;;;;;;21.35;14.25;;;10.10;99.90;;;;;;4975977;28;20523;-45
2022/04/23 02:37:48;;;;;;;19.52;14.82;;;10.10;99.90;;;;;;4975669;28;20089;-50
2022/04/23 02:40:15;;;;;;;22.75;14.75;;;10.00;99.90;;;;;;4975816;28;20089;-46
2022/04/23 02:42:41;;;;;;;22.77;14.20;;;9.90;99.90;;;;;;4975684;28;20117;-49
2022/04/23 02:45:11;;;;;;;17.05;14.70;;;9.90;99.90;;;;;;4975927;28;20101;-50
2022/04/23 02:47:46;;;;;;;21.45;14.05;;;9.90;99.90;;;;;;4975532;28;20034;-51
2022/04/23 02:50:14;;;;;;;17.73;15.68;;;9.80;99.90;;;;;;4975816;28;20018;-44
2022/04/23 02:52:43;;;;;;;16.45;14.10;;;9.70;99.90;;;;;;4975554;28;20089;-45
2022/04/23 02:55:11;;;;;;;22.92;14.15;;;9.70;99.90;;;;;;4975656;28;20046;-47
2022/04/23 02:57:37;;;;;;;19.30;15.10;;;9.70;99.90;;;;;;4975215;28;20056;-43
2022/04/23 03:00:04;;;;;;;24.58;14.63;;;9.60;99.90;;;;;;4975357;28;20027;-47
2022/04/23 03:02:30;;;;;;;21.02;15.13;;;9.60;99.90;;;;;;4975641;28;20558;-45
2022/04/23 03:04:56;;;;;;;17.75;14.57;;;9.60;99.90;;;;;;4975410;28;20098;-46
2022/04/23 03:07:21;;;;;;;22.05;16.25;;;9.60;99.90;;;;;;4975160;28;20138;-46
2022/04/23 03:09:47;;;;;;;17.50;15.48;;;9.60;99.90;;;;;;4975255;28;20109;-45
2022/04/23 03:12:13;;;;;;;19.55;15.55;;;9.50;99.90;;;;;;4975294;28;20026;-50
2022/04/23 03:14:38;;;;;;;18.60;14.95;;;9.50;99.90;;;;;;4975371;28;20057;-46
2022/04/23 03:17:03;;;;;;;16.70;14.10;;;9.60;99.90;;;;;;4974972;28;20307;-46
2022/04/23 03:19:29;;;;;;;20.33;15.60;;;9.60;99.90;;;;;;4975048;28;20027;-45
2022/04/23 03:21:56;;;;;;;18.15;15.60;;;9.50;99.90;;;;;;4975126;28;20078;-46
2022/04/23 03:24:21;;;;;;;18.35;15.48;;;9.60;99.90;;;;;;4975082;28;20446;-47
2022/04/23 03:26:47;;;;;;;19.80;15.35;;;9.60;99.90;;;;;;4974780;28;20074;-46
2022/04/23 03:29:12;;;;;;;17.10;14.63;;;9.60;99.90;;;;;;4974665;28;20574;-50
2022/04/23 03:31:38;;;;;;;19.52;15.48;;;9.60;99.90;;;;;;4974655;28;20105;-47
2022/04/23 03:34:03;;;;;;;20.23;15.80;;;9.60;99.90;;;;;;4973596;28;20027;-41
2022/04/23 03:36:29;;;;;;;18.65;14.63;;;9.60;99.90;;;;;;4973452;28;20027;-47
2022/04/23 03:38:54;;;;;;;20.40;15.63;;;9.60;99.90;;;;;;4974272;28;20046;-46
2022/04/23 03:41:20;;;;;;;18.25;14.35;;;9.70;99.90;;;;;;4974673;28;20077;-48
2022/04/23 03:43:45;;;;;;;18.80;14.93;;;9.70;99.90;;;;;;4974653;28;20031;-46
2022/04/23 03:46:12;;;;;;;16.65;13.50;;;9.70;99.90;;;;;;4974615;28;20038;-41
2022/04/23 03:48:37;;;;;;;17.77;15.02;;;9.70;99.90;;;;;;4974284;28;20518;-52
2022/04/23 03:51:03;;;;;;;18.55;14.57;;;9.80;99.90;;;;;;4974426;28;20058;-44
2022/04/23 03:53:28;;;;;;;17.52;15.05;;;9.70;99.90;;;;;;4974446;28;20117;-46
2022/04/23 03:55:54;;;;;;;21.55;16.05;;;9.70;99.90;;;;;;4973552;28;20123;-51
2022/04/23 03:58:19;;;;;;;15.88;14.18;;;9.70;99.90;;;;;;4974121;28;20078;-47
2022/04/23 04:00:45;;;;;;;15.85;13.63;;;9.70;99.90;;;;;;4974341;28;20027;-47
2022/04/23 04:03:10;;;;;;;17.92;14.63;;;9.70;99.90;;;;;;4974405;28;20022;-50
2022/04/23 04:05:35;;;;;;;16.67;14.35;;;9.80;99.90;;;;;;4974770;28;20479;-44
2022/04/23 04:08:01;;;;;;;20.60;15.60;;;9.80;99.90;;;;;;4973812;28;20111;-45
2022/04/23 04:10:26;;;;;;;21.65;14.18;;;9.80;99.90;;;;;;4974272;28;20094;-50
2022/04/23 04:12:52;;;;;;;17.77;14.88;;;9.80;99.90;;;;;;4974103;28;20414;-50
2022/04/23 04:15:20;;;;;;;16.10;14.40;;;9.80;99.90;;;;;;4974200;28;20491;-48
2022/04/23 04:17:48;;;;;;;15.75;13.18;;;9.80;99.90;;;;;;4973852;28;20427;-45
2022/04/23 04:20:14;;;;;;;17.25;13.82;;;9.80;99.90;;;;;;4974073;28;20058;-48
2022/04/23 04:22:41;;;;;;;16.98;14.18;;;9.80;99.90;;;;;;4974565;28;20554;-45
2022/04/23 04:25:07;;;;;;;16.95;13.65;;;9.70;99.90;;;;;;4974709;28;20031;-42
2022/04/23 04:27:34;;;;;;;20.33;14.48;;;9.80;99.90;;;;;;4973472;28;20094;-48
2022/04/23 04:30:01;;;;;;;16.15;13.55;;;9.80;99.90;;;;;;4974283;28;20023;-47
2022/04/23 04:32:26;;;;;;;16.10;13.80;;;9.80;99.90;;;;;;4974026;28;20051;-45
2022/04/23 04:34:52;;;;;;;19.52;14.40;;;9.80;99.90;;;;;;4974424;28;20402;-41
2022/04/23 04:37:17;;;;;;;19.17;13.60;;;9.70;99.90;;;;;;4973651;28;20038;-48
2022/04/23 04:39:43;;;;;;;17.33;13.75;;;9.70;99.90;;;;;;4972698;28;20420;-46
2022/04/23 04:42:10;;;;;;;15.82;13.52;;;9.70;99.90;;;;;;4973863;28;20037;-45
2022/04/23 04:44:35;;;;;;;18.50;13.60;;;9.80;99.90;;;;;;4973784;28;20059;-46
2022/04/23 04:47:01;;;;;;;15.65;13.23;;;9.80;99.90;;;;;;4973583;28;20117;-41
2022/04/23 04:49:26;;;;;;;16.40;13.55;;;9.90;99.90;;;;;;4973633;28;20078;-47
2022/04/23 04:51:53;;;;;;;18.40;14.05;;;9.80;99.90;;;;;;4973520;28;20423;-51
2022/04/23 04:54:21;;;;;;;15.60;13.20;;;9.80;99.90;;;;;;4973445;28;20027;-48
2022/04/23 04:56:47;;;;;;;18.67;14.35;;;9.90;99.90;;;;;;4973430;28;20125;-48
2022/04/23 04:59:13;;;;;;;16.02;14.07;;;9.90;99.90;;;;;;4973201;28;20038;-48
2022/04/23 05:01:39;;;;;;;18.60;14.10;;;10.00;99.90;;;;;;4973593;28;20019;-47
2022/04/23 05:04:04;;;;;;;16.35;13.07;;;10.00;99.90;;;;;;4973358;28;20029;-42
2022/04/23 05:06:30;;;;;;;16.88;13.13;;;10.10;99.90;;;;;;4973138;28;20031;-46
2022/04/23 05:08:55;;;;;;;17.17;13.18;;;10.10;99.90;;;;;;4972840;28;20402;-46
2022/04/23 05:11:21;;;;;;;14.52;12.13;;;10.10;99.90;;;;;;4972963;28;20031;-48
2022/04/23 05:13:46;;;;;;;15.10;13.40;;;10.20;99.90;;;;;;4973457;28;20115;-43
2022/04/23 05:16:12;;;;;;;14.57;11.45;;;10.20;99.90;;;;;;4973573;28;20105;-45
2022/04/23 05:18:37;;;;;;;15.07;12.85;;;10.30;99.90;;;;;;4972783;28;20121;-50
2022/04/23 05:21:03;;;;;;;14.32;12.57;;;10.40;99.90;;;;;;4973087;28;20094;-45
2022/04/23 05:23:29;;;;;;;15.52;12.50;;;10.40;99.90;;;;;;4973208;28;20105;-41
2022/04/23 05:25:55;;;;;;;15.23;12.75;;;10.40;99.90;;;;;;4973243;28;20089;-46
2022/04/23 05:28:21;;;;;;;14.05;12.40;;;10.50;99.90;;;;;;4972502;28;20042;-49
2022/04/23 05:30:46;;;;;;;14.60;11.23;;;10.60;99.90;;;;;;4972993;28;20545;-48
2022/04/23 05:33:12;;;;;;;15.43;12.07;;;11.00;99.90;;;;;;4972749;28;20109;-53
2022/04/23 05:35:38;;;;;;;13.10;10.70;;;11.20;99.90;;;;;;4972833;28;20041;-44
2022/04/23 05:38:04;;;;;;;13.60;11.43;;;11.40;99.90;;;;;;4972232;28;20122;-44
2022/04/23 05:40:29;;;;;;;11.98;10.73;;;11.50;99.90;;;;;;4972706;28;20534;-49
2022/04/23 05:42:58;;;;;;;13.30;11.27;;;11.70;99.90;;;;;;4972605;28;20059;-48
2022/04/23 05:45:24;;;;;;;11.90;10.25;;;11.50;99.90;;;;;;4972684;28;20482;-55
2022/04/23 05:47:49;;;;;;;12.95;10.93;;;11.50;99.90;;;;;;4972134;28;20035;-47
2022/04/23 05:50:15;;;;;;;11.05;9.95;;;11.40;99.90;;;;;;4974118;28;20031;-48
2022/04/23 05:52:41;;;;;;;12.45;9.95;;;11.30;99.90;;;;;;4976581;28;20037;-48
2022/04/23 05:55:07;;;;;;;11.70;9.45;;;11.50;99.90;;;;;;4976703;28;20077;-43
2022/04/23 05:57:33;;;;;;;10.07;8.65;;;11.50;99.90;;;;;;4976213;28;20033;-46
2022/04/23 05:59:58;;;;;;;10.73;9.57;;;11.60;99.90;;;;;;4976374;28;20035;-42
2022/04/23 06:02:24;;;;;;;10.23;8.88;;;11.60;99.90;;;;;;4976332;28;20027;-49
2022/04/23 06:04:49;;;;;;;12.10;9.27;;;11.50;99.90;;;;;;4976431;28;20046;-47
2022/04/23 06:07:15;;;;;;;9.35;8.43;;;11.50;99.90;;;;;;4976245;28;20102;-45
2022/04/23 06:09:41;;;;;;;9.23;8.32;;;11.50;99.90;;;;;;4975004;28;20525;-45
2022/04/23 06:12:07;;;;;;;9.65;8.68;;;11.70;99.90;;;;;;4975466;28;20035;-44
2022/04/23 06:14:33;;;;;;;8.52;7.68;;;11.60;99.90;;;;;;4975964;28;20038;-45
2022/04/23 06:16:58;;;;;;;8.68;7.82;;;11.70;99.90;;;;;;4976028;28;20031;-43
2022/04/23 06:19:24;;;;;;;8.00;7.20;;;11.80;99.90;;;;;;4976177;28;20069;-51
2022/04/23 06:21:50;;;;;;;8.25;7.32;;;12.00;99.90;;;;;;4975875;28;20019;-45
2022/04/23 06:24:15;;;;;;;8.65;7.82;;;12.00;99.90;;;;;;4977086;28;20019;-45
2022/04/23 06:26:41;;;;;;;11.70;7.65;;;11.90;99.90;;;;;;4976343;28;20023;-47
2022/04/23 06:29:06;;;;;;;7.93;7.18;;;11.90;99.90;;;;;;4975836;28;20039;-51
2022/04/23 06:34:01;;;;;;;7.45;6.75;;;12.10;99.90;;;;;;4998126;23;20055;-46
2022/04/23 06:36:27;;;;;;;7.35;6.65;;;12.40;99.90;;;;;;4976687;28;20398;-51
2022/04/23 06:38:53;;;;;;;8.02;6.70;;;12.50;99.90;;;;;;4975851;28;20047;-48
2022/04/23 06:41:19;;;;;;;7.82;6.10;;;12.50;99.90;;;;;;4976573;28;20042;-48
2022/04/23 06:43:44;;;;;;;6.72;6.07;;;12.70;99.90;;;;;;4975476;28;20109;-50
2022/04/23 06:46:10;;;;;;;6.20;5.60;;;12.80;99.90;;;;;;4975778;28;20494;-50
2022/04/23 06:48:35;;;;;;;5.55;5.05;;;13.00;99.90;;;;;;4973948;28;20031;-52
2022/04/23 06:51:01;;;;;;;6.13;5.53;;;13.10;99.90;;;;;;4975776;28;20114;-44
2022/04/23 06:53:26;;;;;;;6.00;5.47;;;13.30;99.90;;;;;;4976067;28;20046;-45
2022/04/23 06:55:52;;;;;;;5.55;4.95;;;13.60;99.90;;;;;;4976002;28;20034;-55
2022/04/23 06:58:17;;;;;;;5.20;4.70;;;13.60;99.90;;;;;;4975929;28;20030;-48
2022/04/23 07:00:43;;;;;;;6.63;5.03;;;13.60;99.90;;;;;;4975901;28;20027;-45
2022/04/23 07:03:08;;;;;;;7.80;4.50;;;13.90;99.90;;;;;;4971939;28;20027;-45
2022/04/23 07:05:34;;;;;;;5.75;5.25;;;14.10;99.60;;;;;;4975199;28;20030;-46
2022/04/23 07:08:02;;;;;;;5.13;4.63;;;14.30;98.90;;;;;;4975483;28;20023;-46
2022/04/23 07:10:31;;;;;;;5.07;4.65;;;14.60;98.70;;;;;;4974933;28;20487;-47
2022/04/23 07:12:57;;;;;;;7.00;4.60;;;14.60;98.50;;;;;;4975395;28;20042;-45
2022/04/23 07:15:24;;;;;;;5.55;4.80;;;14.20;98.70;;;;;;4975380;28;20080;-47
2022/04/23 07:17:51;;;;;;;4.78;4.35;;;14.00;99.50;;;;;;4974767;28;20502;-44
2022/04/23 07:20:17;;;;;;;4.82;4.43;;;13.80;99.40;;;;;;4975503;28;20054;-44
2022/04/23 07:24:03;;;;;;;5.20;4.18;;;13.90;99.60;;;;;;4975187;28;20027;-46
2022/04/23 07:25:30;;;;;;;4.40;4.00;;;13.80;99.60;;;;;;4975047;28;20062;-46
2022/04/23 07:27:56;;;;;;;4.15;3.75;;;13.70;99.70;;;;;;4974747;28;20553;-44
2022/04/23 07:30:21;;;;;;;4.45;4.10;;;13.60;99.70;;;;;;4974984;28;20034;-47
2022/04/23 07:32:47;;;;;;;3.45;3.17;;;13.70;99.40;;;;;;4973459;28;20093;-44
2022/04/23 07:37:57;;;;;;;4.55;4.15;;;13.80;99.00;;;;;;4974485;28;20029;-45
2022/04/23 07:40:22;;;;;;;3.85;3.28;;;14.10;98.60;;;;;;4990133;28;20027;-46
2022/04/23 07:42:48;;;;;;;3.45;3.25;;;14.10;98.30;;;;;;4974609;28;20081;-46
2022/04/23 07:45:14;;;;;;;4.15;3.72;;;14.30;98.30;;;;;;4975026;28;20492;-47
2022/04/23 07:47:39;;;;;;;3.67;3.38;;;14.40;97.90;;;;;;4974001;28;20027;-45
2022/04/23 07:50:05;;;;;;;3.28;3.08;;;14.60;97.90;;;;;;4974938;28;20027;-46
2022/04/23 07:52:31;;;;;;;3.63;3.33;;;15.10;97.00;;;;;;4974746;28;20030;-49
2022/04/23 07:54:56;;;;;;;4.55;3.45;;;15.50;96.50;;;;;;4989579;28;20479;-49
2022/04/23 07:57:23;;;;;;;3.65;3.30;;;16.50;95.60;;;;;;4974286;28;20023;-44
2022/04/23 07:59:49;;;;;;;3.28;3.08;;;17.30;94.20;;;;;;4974408;28;20038;-44
2022/04/23 08:02:15;;;;;;;3.38;3.17;;;17.60;93.00;;;;;;4974850;28;20498;-46
2022/04/23 08:04:41;;;;;;;3.47;3.25;;;17.20;92.90;;;;;;4974395;28;20498;-43
2022/04/23 08:07:06;;;;;;;3.58;3.28;;;17.50;92.30;;;;;;4974154;28;20026;-46
2022/04/23 08:09:39;;;;;;;3.75;3.45;;;17.80;92.00;;;;;;4973565;28;20046;-50
2022/04/23 08:12:06;;;;;;;3.90;3.50;;;17.90;90.90;;;;;;4967751;28;20031;-52
2022/04/23 08:14:32;;;;;;;8.80;3.90;;;17.50;91.30;;;;;;4973446;28;20027;-50
2022/04/23 08:16:59;;;;;;;4.90;3.22;;;17.30;91.20;;;;;;4972907;28;20046;-45
2022/04/23 08:19:25;;;;;;;3.42;3.22;;;17.00;92.10;;;;;;4973935;28;20114;-45
2022/04/23 08:21:50;;;;;;;8.35;3.42;;;17.10;91.90;;;;;;4974056;28;20070;-43
2022/04/23 08:24:16;;;;;;;4.47;3.55;;;17.60;91.70;;;;;;4973864;28;20023;-45
2022/04/23 08:26:41;;;;;;;3.85;3.45;;;18.00;91.00;;;;;;4973712;28;20031;-47
2022/04/23 08:31:52;;;;;;;3.78;3.47;;;18.00;90.30;;;;;;4973733;28;20542;-47
2022/04/23 08:34:18;;;;;;;3.88;3.03;;;17.90;90.30;;;;;;4973919;28;20123;-50
2022/04/23 08:36:44;;;;;;;3.13;2.92;;;18.30;90.10;;;;;;4973672;28;20054;-44
2022/04/23 08:39:09;;;;;;;5.88;3.42;;;18.70;89.20;;;;;;4973398;28;20401;-47
2022/04/23 08:41:35;;;;;;;3.47;3.28;;;18.10;89.50;;;;;;4974175;28;20033;-48
2022/04/23 08:44:06;;;;;;;3.75;3.38;;;17.40;90.70;;;;;;4975774;28;20490;-47
2022/04/23 08:46:36;;;;;;;2.90;2.70;;;17.40;90.70;;;;;;4975797;28;20169;-48
2022/04/23 08:49:16;;;;;;;3.25;3.03;;;17.30;90.80;;;;;;4960040;28;20023;-50
2022/04/23 08:51:50;;;;;;;3.10;2.90;;;17.30;90.70;;;;;;4975220;28;20041;-48
2022/04/23 08:54:16;;;;;;;3.95;3.25;;;17.00;90.80;;;;;;4990016;28;20062;-50
2022/04/23 08:56:43;;;;;;;8.93;3.78;;;17.00;91.20;;;;;;4974759;28;20029;-49
2022/04/23 08:59:13;;;;;;;3.60;3.30;;;17.20;91.00;;;;;;4974385;28;20155;-46
2022/04/23 09:01:40;;;;;;;5.18;3.28;;;17.20;90.80;;;;;;4990461;28;20419;-48
2022/04/23 09:04:07;;;;;;;4.10;3.10;;;17.20;90.90;;;;;;4974858;28;20390;-49
2022/04/23 09:06:44;;;;;;;3.30;3.00;;;17.00;91.30;;;;;;4974332;28;20037;-44
2022/04/23 09:09:14;;;;;;;3.03;2.83;;;16.90;91.50;;;;;;4989232;28;20030;-49
2022/04/23 09:11:43;;;;;;;3.05;2.78;;;16.90;91.60;;;;;;4964388;28;20073;-45
2022/04/23 09:14:20;;;;;;;3.20;2.78;;;17.40;91.40;;;;;;4975352;28;20022;-48
2022/04/23 09:25:10;;;;;;;7.25;3.30;;;17.10;91.40;;;;;;4977114;28;20042;-46
2022/04/23 09:27:36;;;;;;;3.05;2.85;;;16.80;91.80;;;;;;4974508;28;20026;-49
2022/04/23 09:30:05;;;;;;;6.88;3.80;;;17.00;91.70;;;;;;4975173;28;20046;-53
2022/04/23 09:32:31;;;;;;;4.22;3.60;;;16.90;91.40;;;;;;4977940;28;20041;-50
2022/04/23 09:35:12;;;;;;;4.50;4.10;;;16.60;91.20;;;;;;4976943;28;20030;-50
2022/04/23 09:40:26;;;;;;;4.65;4.22;;;16.30;92.80;;;;;;4974952;28;20529;-44
2022/04/23 09:43:11;;;;;;;11.00;8.93;;;16.10;92.00;;;;;;4974707;28;20026;-49
2022/04/23 09:45:44;;;;;;;93.57;57.57;;;15.90;93.20;;;;;;4975618;28;20022;-46
2022/04/23 09:48:16;;;;;;;8.35;5.60;;;16.00;93.30;;;;;;4975887;28;20311;-45
2022/04/23 09:50:44;;;;;;;11.20;5.00;;;15.80;93.30;;;;;;4975598;28;20410;-49
2022/04/23 09:53:14;;;;;;;9.90;4.85;;;15.90;92.90;;;;;;4975721;28;20458;-47
2022/04/23 09:55:40;;;;;;;7.13;3.78;;;16.00;92.80;;;;;;4975694;28;20403;-45
2022/04/23 09:58:07;;;;;;;4.00;3.60;;;15.80;92.10;;;;;;4976329;28;20022;-46
2022/04/23 10:00:38;;;;;;;4.78;4.38;;;15.60;92.50;;;;;;4975909;28;20050;-48
2022/04/23 10:03:08;;;;;;;4.20;3.90;;;15.50;92.80;;;;;;4972141;28;20053;-46
2022/04/23 10:05:38;;;;;;;4.28;3.88;;;15.50;93.40;;;;;;4972891;28;20105;-43
2022/04/23 10:08:11;;;;;;;5.68;4.00;;;15.40;93.00;;;;;;4973121;28;20023;-48
2022/04/23 10:10:42;;;;;;;10.30;4.68;;;15.50;93.70;;;;;;4973509;28;20046;-45
2022/04/23 10:13:09;;;;;;;7.03;4.15;;;15.60;93.50;;;;;;4974280;28;20085;-46
2022/04/23 10:15:37;;;;;;;6.15;3.55;;;15.50;93.20;;;;;;4972731;28;20031;-46
2022/04/23 10:18:05;;;;;;;4.47;4.13;;;15.50;93.30;;;;;;4969879;28;20065;-46
2022/04/23 10:20:30;;;;;;;4.07;3.67;;;15.40;92.50;;;;;;4988417;28;20023;-49
2022/04/23 10:23:19;;;;;;;3.80;3.50;;;15.40;92.80;;;;;;4973647;28;20034;-46
2022/04/23 10:25:53;;;;;;;5.88;4.30;;;15.40;93.00;;;;;;4973724;28;20054;-47
2022/04/23 10:28:19;;;;;;;6.88;4.30;;;15.20;93.10;;;;;;4972379;28;20031;-48
2022/04/23 10:30:46;;;;;;;4.05;3.65;;;15.20;93.40;;;;;;4972432;28;20483;-47
2022/04/23 10:33:28;;;;;;;8.75;4.50;;;15.30;93.10;;;;;;4971636;28;20107;-44
2022/04/23 10:36:10;;;;;;;5.38;4.85;;;15.40;93.30;;;;;;4973400;28;20031;-47
2022/04/23 10:38:45;;;;;;;8.55;4.78;;;15.40;93.00;;;;;;4975722;28;20434;-47
2022/04/23 10:41:12;;;;;;;6.70;4.28;;;15.60;93.00;;;;;;4976458;28;20053;-45
2022/04/23 10:43:57;;;;;;;4.25;3.85;;;15.50;92.90;;;;;;4976310;28;20050;-46
2022/04/23 10:46:38;;;;;;;6.13;4.65;;;15.60;92.60;;;;;;4974077;28;20093;-46
2022/04/23 10:49:24;;;;;;;4.80;4.30;;;15.70;92.80;;;;;;4975618;28;20487;-46
2022/04/23 10:51:54;;;;;;;6.05;4.82;;;15.80;93.00;;;;;;4975893;28;20043;-45
2022/04/23 10:54:40;;;;;;;4.40;4.00;;;15.90;92.50;;;;;;4975869;28;20027;-46
2022/04/23 10:57:13;;;;;;;4.88;4.47;;;15.90;92.80;;;;;;4975491;28;20026;-44
2022/04/23 10:59:49;;;;;;;4.57;4.18;;;15.90;92.80;;;;;;4975843;28;20026;-45
2022/04/23 11:02:21;;;;;;;4.68;4.25;;;16.00;92.70;;;;;;4990781;28;20486;-50
2022/04/23 11:12:14;;;;;;;6.05;5.00;;;16.00;92.50;;;;;;4976016;28;20031;-44
2022/04/23 11:13:23;;;;;;;11.38;8.52;;;15.70;92.80;;;;;;4974022;28;20057;-48
2022/04/23 11:16:11;;;;;;;6.35;5.72;;;15.90;92.80;;;;;;4974551;28;20025;-45
2022/04/23 11:18:37;;;;;;;7.28;6.00;;;16.00;92.40;;;;;;4974705;28;20660;-46
2022/04/23 11:21:24;;;;;;;8.30;5.45;;;16.00;92.20;;;;;;4975587;28;20023;-45
2022/04/23 11:23:51;;;;;;;8.25;5.88;;;16.10;91.90;;;;;;4990291;28;20077;-45
2022/04/23 11:26:26;;;;;;;10.35;6.40;;;16.10;91.90;;;;;;4975397;28;20450;-46
2022/04/23 11:28:58;;;;;;;8.77;6.13;;;16.10;92.10;;;;;;4974957;28;20053;-45
2022/04/23 11:31:25;;;;;;;8.93;5.78;;;16.20;92.60;;;;;;4975044;28;20027;-46
2022/04/23 11:33:55;;;;;;;9.32;6.78;;;16.10;92.50;;;;;;4974030;28;20042;-48
2022/04/23 11:36:42;;;;;;;7.28;5.97;;;15.90;92.80;;;;;;4972944;28;20418;-44
2022/04/23 11:39:09;;;;;;;13.77;6.78;;;15.80;92.60;;;;;;4973818;28;20022;-45
2022/04/23 11:41:38;;;;;;;8.07;6.95;;;15.60;92.50;;;;;;4974631;28;20026;-42
2022/04/23 11:44:20;;;;;;;12.00;6.53;;;15.50;92.70;;;;;;4974683;28;20155;-44
2022/04/23 11:46:53;;;;;;;8.73;6.75;;;15.60;92.80;;;;;;4973708;28;20446;-42
2022/04/23 11:49:30;;;;;;;8.88;6.30;;;15.60;92.90;;;;;;4974137;28;20034;-44
2022/04/23 11:52:07;;;;;;;10.18;7.28;;;15.60;93.10;;;;;;4989410;28;20498;-44
2022/04/23 11:54:34;;;;;;;11.20;7.72;;;15.60;92.90;;;;;;4974870;28;20035;-42
2022/04/23 11:57:00;;;;;;;8.05;7.25;;;15.40;93.10;;;;;;4974157;28;20506;-45
2022/04/23 11:59:38;;;;;;;9.50;8.57;;;15.40;93.50;;;;;;4974912;28;20077;-43
2022/04/23 12:02:15;;;;;;;10.68;7.90;;;15.40;93.30;;;;;;4974378;28;20027;-43
2022/04/23 12:04:42;;;;;;;8.98;7.90;;;15.30;93.70;;;;;;4974614;28;20030;-44
2022/04/23 12:07:07;;;;;;;9.80;8.68;;;15.30;93.60;;;;;;4974170;28;20034;-47
2022/04/23 12:09:46;;;;;;;9.20;8.18;;;15.40;93.90;;;;;;4974692;28;20052;-43
2022/04/23 12:12:22;;;;;;;8.88;7.65;;;15.50;93.50;;;;;;4974611;28;20027;-47
2022/04/23 12:14:51;;;;;;;8.93;8.02;;;15.50;93.40;;;;;;4974628;28;20026;-43
2022/04/23 12:17:26;;;;;;;10.25;7.55;;;15.60;93.60;;;;;;4991554;28;20030;-46
2022/04/23 12:19:54;;;;;;;13.57;8.70;;;15.70;93.60;;;;;;4978192;28;20023;-45
2022/04/23 12:22:30;;;;;;;10.65;8.43;;;15.60;93.00;;;;;;4978101;28;20027;-43
2022/04/23 12:25:16;;;;;;;13.55;8.95;;;15.50;93.50;;;;;;4977115;28;20405;-47
2022/04/23 12:27:50;;;;;;;;;;;15.40;93.50;;;;;;4974223;28;20030;-44
2022/04/23 12:41:24;;;;;;;13.32;10.15;;;15.40;94.20;;;;;;4974130;28;20037;-44
2022/04/23 12:43:52;;;;;;;12.30;10.35;;;15.40;94.50;;;;;;4989010;28;20483;-44
2022/04/23 12:46:17;;;;;;;15.70;12.25;;;15.30;94.20;;;;;;4974904;28;20027;-44
2022/04/23 12:48:57;;;;;;;11.95;10.40;;;15.40;94.30;;;;;;4988385;28;20519;-44
2022/04/23 12:51:22;;;;;;;16.98;13.30;;;15.40;94.20;;;;;;4974018;28;20057;-44
2022/04/23 12:53:48;;;;;;;15.05;12.45;;;15.40;94.30;;;;;;4974245;28;20054;-44
2022/04/23 12:56:16;;;;;;;21.55;13.05;;;15.40;94.20;;;;;;4988820;28;20113;-45
2022/04/23 12:58:41;;;;;;;14.68;12.68;;;15.30;94.40;;;;;;4973145;28;20386;-44
2022/04/23 13:01:08;;;;;;;19.10;12.63;;;15.30;94.20;;;;;;4973673;28;20031;-45
2022/04/23 13:03:42;;;;;;;17.98;11.73;;;15.40;94.40;;;;;;4973823;28;20026;-43
2022/04/23 13:08:56;;;;;;;18.55;14.05;;;15.50;94.10;;;;;;4973430;28;20034;-45
2022/04/23 13:11:29;;;;;;;15.55;12.90;;;15.50;94.30;;;;;;4994558;23;20170;-52
2022/04/23 13:14:05;;;;;;;14.35;12.82;;;15.50;94.20;;;;;;4973503;28;20023;-51
2022/04/23 13:16:36;;;;;;;;;;;15.70;94.20;;;;;;4973799;28;20492;-48
2022/04/23 13:19:03;;;;;;;22.55;13.65;;;15.80;94.10;;;;;;4972824;28;20008;-44
2022/04/23 13:21:33;;;;;;;14.25;11.68;;;15.90;94.00;;;;;;4973175;28;20026;-48
2022/04/23 13:24:00;;;;;;;15.23;12.35;;;15.80;94.00;;;;;;4973360;28;20019;-49